createdAt,value
2018-11-29T00:00:34.167Z,95948.59
2018-11-29T00:03:03.377Z,95951.86
2018-11-29T00:05:32.603Z,95957.03
2018-11-29T00:08:01.719Z,95964.27
2018-11-29T00:10:30.831Z,95967.77
2018-11-29T00:12:59.911Z,95972.62
2018-11-29T00:15:29.027Z,95975.43
2018-11-29T00:17:58.213Z,95977.70
2018-11-29T00:20:27.412Z,95981.72
2018-11-29T00:22:56.507Z,95982.94
2018-11-29T00:25:25.674Z,95987.27
2018-11-29T00:27:54.799Z,95986.05
2018-11-29T00:30:24.753Z,95983.38
2018-11-29T00:32:54.585Z,95989.17
2018-11-29T00:35:23.730Z,95990.28
2018-11-29T00:37:52.828Z,95995.86
2018-11-29T00:40:23.298Z,95989.44
2018-11-29T00:42:52.556Z,96003.27
2018-11-29T00:45:24.363Z,96004.20
2018-11-29T00:47:53.520Z,96004.94
2018-11-29T00:50:22.772Z,96007.12
2018-11-29T00:52:52.064Z,96005.05
2018-11-29T00:55:23.065Z,96014.73
2018-11-29T00:57:53.042Z,96012.59
2018-11-29T01:00:23.723Z,96013.70
2018-11-29T01:02:52.700Z,96014.65
2018-11-29T01:05:21.955Z,96007.95
2018-11-29T01:07:51.080Z,96015.27
2018-11-29T01:10:20.434Z,96018.67
2018-11-29T01:12:49.779Z,96022.72
2018-11-29T01:15:20.508Z,96025.16
2018-11-29T01:17:50.251Z,96028.27
2018-11-29T01:20:20.038Z,96037.56
2018-11-29T01:22:49.180Z,96038.09
2018-11-29T01:25:18.311Z,96031.97
2018-11-29T01:27:48.199Z,96033.03
2018-11-29T01:30:18.907Z,96037.97
2018-11-29T01:32:47.995Z,96033.54
2018-11-29T01:35:18.776Z,96034.23
2018-11-29T01:37:47.927Z,96036.33
2018-11-29T01:40:19.625Z,96039.00
2018-11-29T01:42:50.003Z,96034.36
2018-11-29T01:45:19.045Z,96026.52
2018-11-29T01:47:48.188Z,96030.13
2018-11-29T01:50:17.391Z,96032.52
2018-11-29T01:52:46.463Z,96032.62
2018-11-29T01:55:15.581Z,96032.30
2018-11-29T01:57:44.687Z,96031.70
2018-11-29T02:00:15.304Z,96031.48
2018-11-29T02:02:44.891Z,96032.72
2018-11-29T02:05:14.088Z,96030.66
2018-11-29T02:07:43.342Z,96044.27
2018-11-29T02:10:18.182Z,96037.46
2018-11-29T02:12:47.172Z,96045.72
2018-11-29T02:15:16.325Z,96050.05
2018-11-29T02:17:45.425Z,96050.17
2018-11-29T02:20:18.019Z,96043.76
2018-11-29T02:22:47.344Z,96049.14
2018-11-29T02:25:16.451Z,96050.25
2018-11-29T02:27:45.537Z,96052.86
2018-11-29T02:30:18.500Z,96056.47
2018-11-29T02:32:47.887Z,96054.20
2018-11-29T02:35:16.966Z,96051.39
2018-11-29T02:37:46.113Z,96051.20
2018-11-29T02:40:15.855Z,96054.91
2018-11-29T02:42:45.201Z,96053.06
2018-11-29T02:45:15.308Z,96053.98
2018-11-29T02:47:44.458Z,96056.47
2018-11-29T02:50:13.570Z,96061.50
2018-11-29T02:52:42.563Z,96059.13
2018-11-29T02:55:12.543Z,96057.48
2018-11-29T02:57:41.867Z,96066.28
2018-11-29T03:00:14.910Z,96065.42
2018-11-29T03:02:44.092Z,96068.85
2018-11-29T03:05:13.255Z,96067.91
2018-11-29T03:07:42.335Z,96069.38
2018-11-29T03:10:12.307Z,96074.95
2018-11-29T03:12:41.449Z,96072.45
2018-11-29T03:15:14.631Z,96077.09
2018-11-29T03:17:58.311Z,96077.31
2018-11-29T03:20:27.456Z,96076.49
2018-11-29T03:22:56.454Z,96085.77
2018-11-29T03:25:25.548Z,96089.58
2018-11-29T03:27:54.648Z,96093.52
2018-11-29T03:30:23.848Z,96089.58
2018-11-29T03:32:52.958Z,96093.42
2018-11-29T03:35:22.054Z,96097.66
2018-11-29T03:37:51.132Z,96098.98
2018-11-29T03:40:20.231Z,96103.42
2018-11-29T03:42:49.328Z,96107.56
2018-11-29T03:45:18.419Z,96109.62
2018-11-29T03:47:47.619Z,96118.51
2018-11-29T03:50:17.517Z,96120.48
2018-11-29T03:52:46.701Z,96123.16
2018-11-29T03:55:15.737Z,96125.64
2018-11-29T03:57:44.851Z,96130.70
2018-11-29T04:00:15.701Z,96129.14
2018-11-29T04:02:45.371Z,96131.42
2018-11-29T04:05:14.465Z,96141.95
2018-11-29T04:07:43.794Z,96145.16
2018-11-29T04:10:14.278Z,96143.41
2018-11-29T04:12:43.582Z,96144.02
2018-11-29T04:15:15.134Z,96143.28
2018-11-29T04:17:44.280Z,96149.16
2018-11-29T04:20:14.388Z,96152.99
2018-11-29T04:22:43.500Z,96156.09
2018-11-29T04:25:13.467Z,96166.52
2018-11-29T04:27:42.608Z,96170.55
2018-11-29T04:30:12.719Z,96169.81
2018-11-29T04:32:41.561Z,96167.13
2018-11-29T04:35:11.024Z,96167.35
2018-11-29T04:37:40.276Z,96171.56
2018-11-29T04:40:23.960Z,96179.43
2018-11-29T04:42:53.425Z,96184.16
2018-11-29T04:45:22.531Z,96187.38
2018-11-29T04:47:51.684Z,96188.91
2018-11-29T04:50:20.732Z,96195.13
2018-11-29T04:52:49.867Z,96192.74
2018-11-29T04:55:18.923Z,96199.23
2018-11-29T04:57:48.026Z,96204.52
2018-11-29T05:00:17.433Z,96203.70
2018-11-29T05:02:46.626Z,96207.28
2018-11-29T05:05:15.724Z,96213.80
2018-11-29T05:07:44.803Z,96214.93
2018-11-29T05:10:17.852Z,96211.23
2018-11-29T05:12:47.620Z,96211.53
2018-11-29T05:15:16.726Z,96214.85
2018-11-29T05:17:45.843Z,96220.94
2018-11-29T05:20:14.959Z,96222.16
2018-11-29T05:22:44.139Z,96216.48
2018-11-29T05:25:13.207Z,96229.39
2018-11-29T05:27:42.327Z,96221.05
2018-11-29T05:30:13.348Z,96225.52
2018-11-29T05:32:42.442Z,96228.12
2018-11-29T05:35:12.172Z,96227.59
2018-11-29T05:37:41.277Z,96233.05
2018-11-29T05:40:11.792Z,96240.88
2018-11-29T05:42:40.892Z,96239.95
2018-11-29T05:45:10.813Z,96245.20
2018-11-29T05:47:39.903Z,96253.67
2018-11-29T05:50:10.443Z,96252.48
2018-11-29T05:52:39.543Z,96261.77
2018-11-29T05:55:10.231Z,96271.35
2018-11-29T05:57:39.371Z,96274.92
2018-11-29T06:00:13.920Z,96277.62
2018-11-29T06:02:43.371Z,96277.67
2018-11-29T06:05:13.458Z,96283.36
2018-11-29T06:07:42.620Z,96288.03
2018-11-29T06:10:11.807Z,96297.05
2018-11-29T06:12:40.936Z,96288.72
2018-11-29T06:15:11.311Z,96292.80
2018-11-29T06:17:40.666Z,96302.85
2018-11-29T06:20:11.824Z,96300.19
2018-11-29T06:22:41.189Z,96304.02
2018-11-29T06:25:10.368Z,96309.45
2018-11-29T06:27:39.455Z,96315.75
2018-11-29T06:30:19.846Z,96319.76
2018-11-29T06:32:49.343Z,96324.59
2018-11-29T06:35:18.404Z,96325.61
2018-11-29T06:37:47.571Z,96333.50
2018-11-29T06:40:17.335Z,96331.27
2018-11-29T06:42:46.537Z,96332.81
2018-11-29T06:45:17.550Z,96321.88
2018-11-29T06:47:46.679Z,96331.73
2018-11-29T06:50:15.953Z,96336.97
2018-11-29T06:52:45.783Z,96342.07
2018-11-29T06:55:19.647Z,96339.39
2018-11-29T06:57:48.787Z,96349.20
2018-11-29T07:00:26.781Z,96343.02
2018-11-29T07:02:55.791Z,96350.87
2018-11-29T07:05:24.913Z,96345.80
2018-11-29T07:07:54.087Z,96347.02
2018-11-29T07:10:28.249Z,96356.83
2018-11-29T07:12:57.310Z,96352.17
2018-11-29T07:15:26.417Z,96352.22
2018-11-29T07:17:55.571Z,96357.47
2018-11-29T07:20:24.617Z,96363.64
2018-11-29T07:22:53.858Z,96358.13
2018-11-29T07:25:22.998Z,96371.57
2018-11-29T07:27:52.151Z,96368.80
2018-11-29T07:30:21.347Z,96372.91
2018-11-29T07:32:50.504Z,96372.70
2018-11-29T07:35:19.719Z,96381.24
2018-11-29T07:37:48.895Z,96374.81
2018-11-29T07:40:19.722Z,96375.88
2018-11-29T07:42:50.923Z,96382.42
2018-11-29T07:45:20.734Z,96380.05
2018-11-29T07:47:49.784Z,96370.59
2018-11-29T07:50:21.940Z,96380.69
2018-11-29T07:52:51.003Z,96387.03
2018-11-29T07:55:21.047Z,96388.98
2018-11-29T07:57:52.116Z,96384.88
2018-11-29T08:00:21.191Z,96393.47
2018-11-29T08:02:50.384Z,96390.14
2018-11-29T08:05:19.467Z,96390.88
2018-11-29T08:07:48.977Z,96392.61
2018-11-29T08:10:18.946Z,96389.45
2018-11-29T08:12:48.252Z,96391.88
2018-11-29T08:15:18.316Z,96395.90
2018-11-29T08:17:47.444Z,96394.96
2018-11-29T08:20:20.159Z,96396.42
2018-11-29T08:22:49.307Z,96395.09
2018-11-29T08:25:18.478Z,96397.67
2018-11-29T08:27:47.598Z,96406.85
2018-11-29T08:30:17.007Z,96400.63
2018-11-29T08:32:46.089Z,96399.23
2018-11-29T08:35:15.827Z,96398.68
2018-11-29T08:37:45.731Z,96405.42
2018-11-29T08:40:18.836Z,96411.55
2018-11-29T08:42:47.979Z,96410.54
2018-11-29T08:45:17.113Z,96412.80
2018-11-29T08:47:46.267Z,96405.39
2018-11-29T08:50:15.880Z,96402.73
2018-11-29T08:52:45.755Z,96397.77
2018-11-29T08:55:18.644Z,96400.54
2018-11-29T08:57:48.392Z,96389.66
2018-11-29T09:00:19.372Z,96394.84
2018-11-29T09:02:48.481Z,96374.20
2018-11-29T09:05:17.770Z,96377.64
2018-11-29T09:07:47.643Z,96386.31
2018-11-29T09:10:18.611Z,96373.05
2018-11-29T09:12:47.648Z,96373.44
2018-11-29T09:15:17.343Z,96369.08
2018-11-29T09:17:46.428Z,96372.92
2018-11-29T09:20:17.315Z,96370.20
2018-11-29T09:22:46.469Z,96368.00
2018-11-29T09:25:16.444Z,96364.87
2018-11-29T09:27:45.649Z,96362.73
2018-11-29T09:30:15.475Z,96359.69
2018-11-29T09:32:45.065Z,96366.39
2018-11-29T09:35:14.130Z,96368.25
2018-11-29T09:37:43.216Z,96373.22
2018-11-29T09:40:14.004Z,96370.08
2018-11-29T09:42:43.148Z,96371.08
2018-11-29T09:45:17.235Z,96373.50
2018-11-29T09:47:47.998Z,96364.50
2018-11-29T09:50:17.636Z,96354.84
2018-11-29T09:52:46.768Z,96350.94
2018-11-29T09:55:16.615Z,96353.20
2018-11-29T09:57:46.208Z,96346.19
2018-11-29T10:00:27.538Z,96343.17
2018-11-29T10:03:02.129Z,96352.86
2018-11-29T10:05:31.335Z,96357.64
2018-11-29T10:08:00.425Z,96357.41
2018-11-29T10:10:29.566Z,96353.25
2018-11-29T10:12:58.741Z,96356.27
2018-11-29T10:15:27.821Z,96361.52
2018-11-29T10:17:56.927Z,96356.64
2018-11-29T10:20:26.075Z,96354.32
2018-11-29T10:22:55.219Z,96348.66
2018-11-29T10:25:24.312Z,96348.92
2018-11-29T10:27:59.131Z,96346.80
2018-11-29T10:30:32.536Z,96343.17
2018-11-29T10:33:01.611Z,96347.47
2018-11-29T10:35:30.707Z,96343.37
2018-11-29T10:37:59.839Z,96346.91
2018-11-29T10:40:28.900Z,96347.16
2018-11-29T10:42:57.915Z,96342.22
2018-11-29T10:45:27.117Z,96343.50
2018-11-29T10:47:56.625Z,96349.75
2018-11-29T10:50:25.727Z,96350.02
2018-11-29T10:52:54.812Z,96345.91
2018-11-29T10:55:23.987Z,96350.12
2018-11-29T10:57:53.112Z,96346.91
2018-11-29T11:00:28.144Z,96349.30
2018-11-29T11:03:32.484Z,96350.00
2018-11-29T11:06:01.693Z,96354.88
2018-11-29T11:08:30.824Z,96349.50
2018-11-29T11:11:04.001Z,96351.73
2018-11-29T11:13:33.164Z,96355.66
2018-11-29T11:16:02.237Z,96353.62
2018-11-29T11:18:31.329Z,96358.05
2018-11-29T11:21:00.471Z,96356.77
2018-11-29T11:23:29.516Z,96348.84
2018-11-29T11:25:58.748Z,96352.19
2018-11-29T11:28:27.816Z,96343.20
2018-11-29T11:30:57.855Z,96340.84
2018-11-29T11:33:26.952Z,96344.63
2018-11-29T11:35:56.001Z,96347.19
2018-11-29T11:38:25.144Z,96349.30
2018-11-29T11:40:54.218Z,96357.25
2018-11-29T11:43:23.315Z,96344.47
2018-11-29T11:45:52.436Z,96340.11
2018-11-29T11:48:21.605Z,96334.41
2018-11-29T11:50:50.920Z,96326.16
2018-11-29T11:53:20.013Z,96319.05
2018-11-29T11:55:53.584Z,96314.02
2018-11-29T11:58:18.203Z,96316.08
2018-11-29T12:00:47.244Z,96311.33
2018-11-29T12:03:16.969Z,96310.30
2018-11-29T12:05:46.027Z,96305.23
2018-11-29T12:08:15.019Z,96302.92
2018-11-29T12:10:44.632Z,96301.59
2018-11-29T12:13:13.735Z,96301.29
2018-11-29T12:15:42.905Z,96296.84
2018-11-29T12:18:12.933Z,96296.91
2018-11-29T12:20:41.985Z,96305.47
2018-11-29T12:23:11.134Z,96294.73
2018-11-29T12:25:40.204Z,96301.88
2018-11-29T12:28:09.291Z,96300.59
2018-11-29T12:30:42.727Z,96312.14
2018-11-29T12:33:11.827Z,96322.59
2018-11-29T12:35:40.941Z,96321.80
2018-11-29T12:38:09.989Z,96312.35
2018-11-29T12:40:39.088Z,96318.45
2018-11-29T12:43:08.291Z,96316.20
2018-11-29T12:45:37.395Z,96321.44
2018-11-29T12:48:06.487Z,96320.48
2018-11-29T12:50:38.068Z,96310.16
2018-11-29T12:53:07.844Z,96319.82
2018-11-29T12:55:39.763Z,96316.38
2018-11-29T12:58:08.804Z,96319.58
2018-11-29T13:00:37.900Z,96311.80
2018-11-29T13:05:38.043Z,96310.85
2018-11-29T13:08:07.719Z,96313.35
2018-11-29T13:10:36.879Z,96306.95
2018-11-29T13:13:06.659Z,96315.80
2018-11-29T13:15:35.978Z,96320.92
2018-11-29T13:18:06.663Z,96319.30
2018-11-29T13:20:35.852Z,96310.98
2018-11-29T13:23:04.909Z,96312.56
2018-11-29T13:25:34.087Z,96316.50
2018-11-29T13:28:03.434Z,96317.53
2018-11-29T13:30:32.487Z,96317.23
2018-11-29T13:33:01.741Z,96316.38
2018-11-29T13:35:33.140Z,96312.35
2018-11-29T13:38:07.269Z,96316.34
2018-11-29T13:40:36.578Z,96324.73
2018-11-29T13:43:05.772Z,96321.86
2018-11-29T13:45:34.804Z,96325.16
2018-11-29T13:48:03.960Z,96322.10
2018-11-29T13:50:33.104Z,96320.33
2018-11-29T13:53:02.530Z,96323.66
2018-11-29T13:55:31.966Z,96322.53
2018-11-29T13:58:01.971Z,96323.02
2018-11-29T14:00:31.277Z,96314.30
2018-11-29T14:03:03.227Z,96323.05
2018-11-29T14:05:32.553Z,96320.58
2018-11-29T14:08:01.966Z,96321.86
2018-11-29T14:10:31.357Z,96319.67
2018-11-29T14:13:00.783Z,96318.08
2018-11-29T14:15:30.375Z,96312.87
2018-11-29T14:17:59.794Z,96317.78
2018-11-29T14:20:29.293Z,96320.48
2018-11-29T14:22:58.686Z,96327.86
2018-11-29T14:25:28.713Z,96322.98
2018-11-29T14:27:58.733Z,96322.53
2018-11-29T14:30:29.674Z,96315.49
2018-11-29T14:33:00.042Z,96331.40
2018-11-29T14:35:29.637Z,96329.05
2018-11-29T14:37:59.052Z,96329.11
2018-11-29T14:40:29.668Z,96331.09
2018-11-29T14:43:00.206Z,96335.15
2018-11-29T14:45:29.701Z,96335.33
2018-11-29T14:47:59.115Z,96340.82
2018-11-29T14:50:33.937Z,96335.77
2018-11-29T14:53:03.414Z,96340.55
2018-11-29T14:55:33.531Z,96340.23
2018-11-29T14:58:03.295Z,96343.59
2018-11-29T15:00:33.318Z,96344.59
2018-11-29T15:03:05.268Z,96346.61
2018-11-29T15:05:34.607Z,96346.98
2018-11-29T15:08:03.940Z,96348.56
2018-11-29T15:10:33.324Z,96343.29
2018-11-29T15:13:02.621Z,96335.14
2018-11-29T15:15:32.171Z,96350.76
2018-11-29T15:18:01.448Z,96343.29
2018-11-29T15:20:34.678Z,96341.05
2018-11-29T15:23:03.934Z,96345.08
2018-11-29T15:25:33.264Z,96345.17
2018-11-29T15:28:02.644Z,96339.81
2018-11-29T15:30:31.850Z,96344.38
2018-11-29T15:33:01.294Z,96341.85
2018-11-29T15:35:30.778Z,96342.59
2018-11-29T15:38:00.276Z,96342.09
2018-11-29T15:40:30.356Z,96345.08
2018-11-29T15:43:00.389Z,96347.39
2018-11-29T15:45:29.987Z,96348.32
2018-11-29T15:48:01.061Z,96354.66
2018-11-29T15:50:30.625Z,96351.30
2018-11-29T15:53:00.101Z,96353.04
2018-11-29T15:55:29.547Z,96355.51
2018-11-29T15:57:58.850Z,96357.16
2018-11-29T16:00:29.095Z,96361.39
2018-11-29T16:03:01.251Z,96368.10
2018-11-29T16:05:30.663Z,96372.27
2018-11-29T16:08:00.058Z,96375.66
2018-11-29T16:10:29.453Z,96370.41
2018-11-29T16:12:58.788Z,96371.55
2018-11-29T16:15:28.338Z,96372.03
2018-11-29T16:17:57.668Z,96374.53
2018-11-29T16:20:28.952Z,96371.42
2018-11-29T16:22:58.351Z,96370.27
2018-11-29T16:25:27.532Z,96378.74
2018-11-29T16:27:56.929Z,96375.11
2018-11-29T16:30:48.348Z,96378.04
2018-11-29T16:33:22.040Z,96379.11
2018-11-29T16:35:51.376Z,96378.63
2018-11-29T16:38:20.860Z,96372.19
2018-11-29T16:40:50.205Z,96372.59
2018-11-29T16:43:19.566Z,96374.78
2018-11-29T16:45:48.894Z,96373.20
2018-11-29T16:48:18.351Z,96374.88
2018-11-29T16:50:47.661Z,96373.63
2018-11-29T16:53:17.315Z,96375.84
2018-11-29T16:55:46.800Z,96377.22
2018-11-29T16:58:17.825Z,96374.05
2018-11-29T17:00:47.222Z,96371.13
2018-11-29T17:03:16.721Z,96369.88
2018-11-29T17:05:46.134Z,96364.23
2018-11-29T17:08:15.437Z,96366.61
2018-11-29T17:10:44.650Z,96364.66
2018-11-29T17:13:15.458Z,96364.66
2018-11-29T17:15:44.833Z,96364.75
2018-11-29T17:18:14.478Z,96370.63
2018-11-29T17:20:43.959Z,96382.61
2018-11-29T17:23:13.629Z,96377.25
2018-11-29T17:25:43.054Z,96380.14
2018-11-29T17:28:12.438Z,96379.50
2018-11-29T17:30:42.012Z,96376.00
2018-11-29T17:33:11.336Z,96377.03
2018-11-29T17:35:40.843Z,96375.30
2018-11-29T17:38:10.169Z,96382.66
2018-11-29T17:40:39.925Z,96372.52
2018-11-29T17:43:09.387Z,96373.86
2018-11-29T17:45:39.010Z,96368.88
2018-11-29T17:48:10.356Z,96370.66
2018-11-29T17:50:40.843Z,96370.92
2018-11-29T17:53:10.176Z,96369.33
2018-11-29T17:55:39.597Z,96369.11
2018-11-29T17:58:11.769Z,96362.50
2018-11-29T18:00:41.130Z,96368.72
2018-11-29T18:03:10.748Z,96370.12
2018-11-29T18:05:40.208Z,96368.22
2018-11-29T18:08:11.014Z,96370.45
2018-11-29T18:10:41.222Z,96370.78
2018-11-29T18:13:15.806Z,96364.20
2018-11-29T18:15:45.300Z,96366.48
2018-11-29T18:18:14.807Z,96356.70
2018-11-29T18:20:44.216Z,96359.66
2018-11-29T18:23:13.603Z,96363.16
2018-11-29T18:25:43.223Z,96362.49
2018-11-29T18:28:13.142Z,96361.16
2018-11-29T18:30:42.671Z,96356.52
2018-11-29T18:33:13.321Z,96359.51
2018-11-29T18:35:42.755Z,96352.95
2018-11-29T18:38:12.176Z,96352.98
2018-11-29T18:40:41.786Z,96355.02
2018-11-29T18:43:11.786Z,96346.73
2018-11-29T18:45:41.296Z,96353.50
2018-11-29T18:48:11.211Z,96351.16
2018-11-29T18:50:40.896Z,96353.77
2018-11-29T18:53:10.368Z,96347.83
2018-11-29T18:55:39.613Z,96356.73
2018-11-29T18:58:09.077Z,96356.45
2018-11-29T19:00:38.817Z,96356.55
2018-11-29T19:03:08.869Z,96352.86
2018-11-29T19:05:38.092Z,96351.00
2018-11-29T19:08:09.627Z,96347.31
2018-11-29T19:10:39.221Z,96352.83
2018-11-29T19:13:11.530Z,96346.42
2018-11-29T19:15:41.153Z,96347.16
2018-11-29T19:18:11.071Z,96352.19
2018-11-29T19:20:40.482Z,96349.59
2018-11-29T19:23:09.783Z,96349.84
2018-11-29T19:25:39.311Z,96344.71
2018-11-29T19:28:08.702Z,96344.92
2018-11-29T19:30:38.653Z,96347.70
2018-11-29T19:33:17.555Z,96343.83
2018-11-29T19:35:46.646Z,96347.30
2018-11-29T19:38:16.114Z,96347.53
2018-11-29T19:40:45.686Z,96346.50
2018-11-29T19:43:15.159Z,96345.66
2018-11-29T19:45:44.436Z,96351.97
2018-11-29T19:48:13.843Z,96352.66
2018-11-29T19:50:43.180Z,96358.62
2018-11-29T19:53:17.169Z,96364.63
2018-11-29T19:55:46.771Z,96356.48
2018-11-29T19:58:16.206Z,96359.09
2018-11-29T20:00:45.706Z,96365.92
2018-11-29T20:03:15.549Z,96358.16
2018-11-29T20:05:45.050Z,96355.98
2018-11-29T20:08:14.394Z,96353.47
2018-11-29T20:10:43.883Z,96359.68
2018-11-29T20:13:15.102Z,96357.17
2018-11-29T20:15:45.920Z,96362.72
2018-11-29T20:18:15.546Z,96356.71
2018-11-29T20:20:45.037Z,96356.11
2018-11-29T20:23:15.217Z,96359.61
2018-11-29T20:25:45.489Z,96358.58
2018-11-29T20:28:15.149Z,96361.78
2018-11-29T20:30:44.367Z,96352.11
2018-11-29T20:33:13.810Z,96354.25
2018-11-29T20:35:43.189Z,96361.70
2018-11-29T20:38:12.599Z,96351.91
2018-11-29T20:40:43.174Z,96349.82
2018-11-29T20:43:12.641Z,96347.80
2018-11-29T20:45:49.014Z,96346.05
2018-11-29T20:48:19.796Z,96340.56
2018-11-29T20:50:49.523Z,96350.66
2018-11-29T20:53:20.836Z,96342.61
2018-11-29T20:55:50.204Z,96345.46
2018-11-29T20:58:19.569Z,96348.85
2018-11-29T21:00:48.883Z,96348.33
2018-11-29T21:03:18.196Z,96342.04
2018-11-29T21:05:47.590Z,96338.11
2018-11-29T21:08:16.874Z,96334.27
2018-11-29T21:10:46.182Z,96337.81
2018-11-29T21:13:15.531Z,96334.77
2018-11-29T21:15:45.005Z,96333.91
2018-11-29T21:18:15.259Z,96333.22
2018-11-29T21:20:44.946Z,96331.05
2018-11-29T21:23:16.325Z,96324.76
2018-11-29T21:25:46.185Z,96323.82
2018-11-29T21:28:15.501Z,96325.16
2018-11-29T21:30:44.983Z,96325.28
2018-11-29T21:33:14.503Z,96324.74
2018-11-29T21:35:43.850Z,96317.52
2018-11-29T21:38:20.369Z,96317.63
2018-11-29T21:40:55.459Z,96316.10
2018-11-29T21:43:24.861Z,96312.66
2018-11-29T21:45:54.317Z,96311.63
2018-11-29T21:48:23.711Z,96310.57
2018-11-29T21:50:53.037Z,96305.89
2018-11-29T21:53:22.348Z,96300.00
2018-11-29T21:55:51.830Z,96300.19
2018-11-29T21:58:21.038Z,96303.39
2018-11-29T22:00:50.329Z,96296.66
2018-11-29T22:03:19.784Z,96298.02
2018-11-29T22:05:49.262Z,96293.34
2018-11-29T22:08:18.634Z,96291.61
2018-11-29T22:10:47.936Z,96285.30
2018-11-29T22:13:17.145Z,96288.22
2018-11-29T22:15:46.464Z,96286.53
2018-11-29T22:18:19.721Z,96287.28
2018-11-29T22:20:50.337Z,96277.47
2018-11-29T22:23:19.676Z,96275.84
2018-11-29T22:25:49.031Z,96267.56
2018-11-29T22:28:18.340Z,96264.17
2018-11-29T22:30:47.656Z,96260.84
2018-11-29T22:33:17.014Z,96258.35
2018-11-29T22:35:46.504Z,96254.48
2018-11-29T22:38:16.021Z,96256.52
2018-11-29T22:40:45.439Z,96254.37
2018-11-29T22:43:14.954Z,96241.13
2018-11-29T22:45:44.316Z,96245.16
2018-11-29T22:48:13.630Z,96241.02
2018-11-29T22:50:43.099Z,96242.99
2018-11-29T22:53:12.395Z,96244.04
2018-11-29T22:55:41.731Z,96249.12
2018-11-29T22:58:11.000Z,96242.52
2018-11-29T23:00:45.499Z,96242.89
2018-11-29T23:03:14.847Z,96237.93
2018-11-29T23:05:44.137Z,96231.44
2018-11-29T23:08:13.441Z,96233.38
2018-11-29T23:10:42.853Z,96227.83
2018-11-29T23:13:12.073Z,96234.23
2018-11-29T23:15:41.480Z,96232.16
2018-11-29T23:18:10.861Z,96230.92
2018-11-29T23:20:40.167Z,96223.50
2018-11-29T23:23:09.509Z,96229.17
2018-11-29T23:25:38.961Z,96227.52
2018-11-29T23:28:08.712Z,96225.59
2018-11-29T23:30:38.074Z,96218.03
2018-11-29T23:33:07.378Z,96217.53
2018-11-29T23:35:36.577Z,96210.19
2018-11-29T23:38:06.106Z,96216.27
2018-11-29T23:40:35.496Z,96210.08
2018-11-29T23:43:04.801Z,96214.63
2018-11-29T23:45:34.071Z,96205.94
2018-11-29T23:48:03.401Z,96210.49
2018-11-29T23:50:32.694Z,96207.28
2018-11-29T23:53:01.993Z,96208.44
2018-11-29T23:55:31.708Z,96199.75
2018-11-29T23:58:01.028Z,96204.19
